createdAt,value
2017-08-22T00:00:19.924Z,0
2017-08-22T00:00:52.169Z,0
2017-08-22T00:01:24.442Z,0
2017-08-22T00:01:56.720Z,0
2017-08-22T00:02:28.997Z,0
2017-08-22T00:03:01.278Z,0
2017-08-22T00:03:33.561Z,0
2017-08-22T00:04:05.915Z,0
2017-08-22T00:04:38.215Z,0
2017-08-22T00:05:10.526Z,0
2017-08-22T00:05:42.795Z,0
2017-08-22T00:06:15.091Z,0
2017-08-22T00:06:47.373Z,0
2017-08-22T00:07:19.662Z,0
2017-08-22T00:07:51.947Z,0
2017-08-22T00:08:24.234Z,0
2017-08-22T00:08:56.528Z,0
2017-08-22T00:09:28.845Z,0
2017-08-22T00:10:01.157Z,0
2017-08-22T00:10:33.464Z,0
2017-08-22T00:11:05.749Z,0
2017-08-22T00:11:38.050Z,0
2017-08-22T00:12:10.354Z,0
2017-08-22T00:12:42.637Z,0
2017-08-22T00:13:14.942Z,0
2017-08-22T00:13:47.248Z,0
2017-08-22T00:14:19.534Z,0
2017-08-22T00:14:51.837Z,0
2017-08-22T00:15:24.144Z,0
2017-08-22T00:15:56.453Z,0
2017-08-22T00:16:28.741Z,0
2017-08-22T00:17:01.042Z,0
2017-08-22T00:17:33.332Z,0
2017-08-22T00:18:05.627Z,0
2017-08-22T00:18:37.940Z,0
2017-08-22T00:19:10.247Z,0
2017-08-22T00:19:42.544Z,0
2017-08-22T00:20:14.821Z,0
2017-08-22T00:20:47.136Z,0
2017-08-22T00:21:19.432Z,0
2017-08-22T00:21:51.746Z,0
2017-08-22T00:22:24.060Z,0
2017-08-22T00:22:56.334Z,0
2017-08-22T00:23:28.688Z,0
2017-08-22T00:24:00.928Z,0
2017-08-22T00:24:33.198Z,0
2017-08-22T00:25:05.602Z,0
2017-08-22T00:25:37.861Z,0
2017-08-22T00:26:10.127Z,0
2017-08-22T00:26:42.412Z,0
2017-08-22T00:27:14.674Z,0
2017-08-22T00:27:47.858Z,0
2017-08-22T00:28:20.118Z,0
2017-08-22T00:28:52.854Z,0
2017-08-22T00:29:25.135Z,0
2017-08-22T00:29:57.397Z,0
2017-08-22T00:30:29.631Z,0
2017-08-22T00:31:01.892Z,0
2017-08-22T00:31:34.166Z,0
2017-08-22T00:32:06.503Z,0
2017-08-22T00:32:38.789Z,0
2017-08-22T00:33:11.046Z,0
2017-08-22T00:33:43.290Z,0
2017-08-22T00:34:15.661Z,0
2017-08-22T00:34:47.926Z,0
2017-08-22T00:35:20.206Z,0
2017-08-22T00:35:52.476Z,0
2017-08-22T00:36:24.739Z,0
2017-08-22T00:36:56.990Z,0
2017-08-22T00:37:29.256Z,0
2017-08-22T00:38:01.502Z,0
2017-08-22T00:38:33.765Z,0
2017-08-22T00:39:06.011Z,0
2017-08-22T00:39:38.267Z,0
2017-08-22T00:40:10.526Z,0
2017-08-22T00:40:42.813Z,0
2017-08-22T00:41:15.067Z,0
2017-08-22T00:41:47.325Z,0
2017-08-22T00:42:19.594Z,0
2017-08-22T00:42:51.862Z,0
2017-08-22T00:43:24.132Z,0
2017-08-22T00:43:56.390Z,0
2017-08-22T00:44:28.701Z,0
2017-08-22T00:45:00.966Z,0
2017-08-22T00:45:33.240Z,0
2017-08-22T00:46:05.493Z,0
2017-08-22T00:46:37.983Z,0
2017-08-22T00:47:10.239Z,0
2017-08-22T00:47:42.516Z,0
2017-08-22T00:48:14.776Z,0
2017-08-22T00:48:47.054Z,0
2017-08-22T00:49:19.340Z,0
2017-08-22T00:49:51.602Z,0
2017-08-22T00:50:23.861Z,0
2017-08-22T00:50:56.118Z,0
2017-08-22T00:51:28.371Z,0
2017-08-22T00:52:00.657Z,0
2017-08-22T00:52:32.940Z,0
2017-08-22T00:55:15.274Z,0
2017-08-22T00:55:47.513Z,0
2017-08-22T00:56:19.769Z,0
2017-08-22T00:56:52.021Z,0
2017-08-22T00:57:24.288Z,0
2017-08-22T00:57:56.559Z,0
2017-08-22T00:58:28.858Z,0
2017-08-22T00:59:01.101Z,0
2017-08-22T00:59:33.356Z,0
2017-08-22T01:00:05.636Z,0
2017-08-22T01:00:37.886Z,0
2017-08-22T01:01:10.144Z,0
2017-08-22T01:01:42.525Z,0
2017-08-22T01:02:14.781Z,0
2017-08-22T01:02:47.044Z,0
2017-08-22T01:03:19.301Z,0
2017-08-22T01:03:51.612Z,0
2017-08-22T01:04:23.862Z,0
2017-08-22T01:04:56.207Z,0
2017-08-22T01:05:28.490Z,0
2017-08-22T01:06:00.772Z,0
2017-08-22T01:06:33.101Z,0
2017-08-22T01:07:05.375Z,0
2017-08-22T01:07:37.629Z,0
2017-08-22T01:08:09.882Z,0
2017-08-22T01:08:42.120Z,0
2017-08-22T01:09:14.555Z,0
2017-08-22T01:09:46.820Z,0
2017-08-22T01:10:19.072Z,0
2017-08-22T01:10:51.354Z,0
2017-08-22T01:11:23.627Z,0
2017-08-22T01:11:55.904Z,0
2017-08-22T01:12:28.194Z,0
2017-08-22T01:13:00.495Z,0
2017-08-22T01:13:32.791Z,0
2017-08-22T01:14:05.097Z,0
2017-08-22T01:14:37.406Z,0
2017-08-22T01:15:09.718Z,0
2017-08-22T01:15:42.014Z,0
2017-08-22T01:16:14.314Z,0
2017-08-22T01:16:46.599Z,0
2017-08-22T01:17:18.893Z,0
2017-08-22T01:17:51.197Z,0
2017-08-22T01:18:23.491Z,0
2017-08-22T01:18:55.798Z,0
2017-08-22T01:19:28.109Z,0
2017-08-22T01:20:00.413Z,0
2017-08-22T01:20:32.714Z,0
2017-08-22T01:21:05.017Z,0
2017-08-22T01:21:37.316Z,0
2017-08-22T01:22:09.610Z,0
2017-08-22T01:22:41.910Z,0
2017-08-22T01:23:14.253Z,0
2017-08-22T01:23:46.558Z,0
2017-08-22T01:24:18.809Z,0
2017-08-22T01:24:51.058Z,0
2017-08-22T01:25:23.303Z,0
2017-08-22T01:25:55.699Z,0
2017-08-22T01:26:27.944Z,0
2017-08-22T01:27:00.214Z,0
2017-08-22T01:27:32.488Z,0
2017-08-22T01:28:04.761Z,0
2017-08-22T01:28:37.132Z,0
2017-08-22T01:29:09.386Z,0
2017-08-22T01:29:41.639Z,0
2017-08-22T01:30:13.911Z,0
2017-08-22T01:30:46.200Z,0
2017-08-22T01:31:18.541Z,0
2017-08-22T01:31:50.816Z,0
2017-08-22T01:32:23.095Z,0
2017-08-22T01:32:55.385Z,0
2017-08-22T01:33:27.682Z,0
2017-08-22T01:33:59.981Z,0
2017-08-22T01:34:32.274Z,0
2017-08-22T01:35:04.587Z,0
2017-08-22T01:35:36.873Z,0
2017-08-22T01:36:09.187Z,0
2017-08-22T01:36:41.482Z,0
2017-08-22T01:37:13.779Z,0
2017-08-22T01:37:46.084Z,0
2017-08-22T01:38:18.392Z,0
2017-08-22T01:38:50.685Z,0
2017-08-22T01:39:22.982Z,0
2017-08-22T01:39:55.275Z,0
2017-08-22T01:40:27.572Z,0
2017-08-22T01:40:59.860Z,0
2017-08-22T01:41:32.165Z,0
2017-08-22T01:42:04.464Z,0
2017-08-22T01:42:36.757Z,0
2017-08-22T01:43:08.997Z,0
2017-08-22T01:43:41.253Z,0
2017-08-22T01:44:13.529Z,0
2017-08-22T01:44:45.789Z,0
2017-08-22T01:45:18.052Z,0
2017-08-22T01:45:50.315Z,0
2017-08-22T01:46:22.725Z,0
2017-08-22T01:46:55.007Z,0
2017-08-22T01:47:27.263Z,0
2017-08-22T01:47:59.524Z,0
2017-08-22T01:48:31.854Z,0
2017-08-22T01:49:04.107Z,0
2017-08-22T01:49:36.397Z,0
2017-08-22T01:50:08.669Z,0
2017-08-22T01:50:40.934Z,0
2017-08-22T01:51:13.211Z,0
2017-08-22T01:51:45.461Z,0
2017-08-22T01:52:17.718Z,0
2017-08-22T01:52:49.995Z,0
2017-08-22T01:53:22.304Z,0
2017-08-22T01:53:54.598Z,0
2017-08-22T01:54:26.893Z,0
2017-08-22T01:54:59.174Z,0
2017-08-22T01:55:31.477Z,0
2017-08-22T01:56:03.776Z,0
2017-08-22T01:56:36.071Z,0
2017-08-22T01:57:08.379Z,0
2017-08-22T01:57:40.681Z,0
2017-08-22T01:58:12.961Z,0
2017-08-22T01:58:45.262Z,0
2017-08-22T01:59:17.570Z,0
2017-08-22T01:59:49.849Z,0
2017-08-22T02:00:22.148Z,0
2017-08-22T02:00:54.445Z,0
2017-08-22T02:01:26.745Z,0
2017-08-22T02:01:59.043Z,0
2017-08-22T02:02:31.355Z,0
2017-08-22T02:03:03.645Z,0
2017-08-22T02:03:35.936Z,0
2017-08-22T02:04:08.246Z,0
2017-08-22T02:04:40.556Z,0
2017-08-22T02:05:12.844Z,0
2017-08-22T02:05:45.134Z,0
2017-08-22T02:06:17.429Z,0
2017-08-22T02:06:49.724Z,0
2017-08-22T02:07:22.018Z,0
2017-08-22T02:07:54.299Z,0
2017-08-22T02:08:26.604Z,0
2017-08-22T02:08:58.906Z,0
2017-08-22T02:09:31.211Z,0
2017-08-22T02:10:03.502Z,0
2017-08-22T02:10:35.820Z,0
2017-08-22T02:11:08.124Z,0
2017-08-22T02:11:40.438Z,0
2017-08-22T02:12:12.739Z,0
2017-08-22T02:12:45.044Z,0
2017-08-22T02:13:17.334Z,0
2017-08-22T02:13:49.621Z,0
2017-08-22T02:14:21.923Z,0
2017-08-22T02:14:54.224Z,0
2017-08-22T02:15:26.530Z,0
2017-08-22T02:15:58.846Z,0
2017-08-22T02:16:31.146Z,0
2017-08-22T02:17:03.448Z,0
2017-08-22T02:17:35.759Z,0
2017-08-22T02:18:08.060Z,0
2017-08-22T02:18:40.356Z,0
2017-08-22T02:19:12.648Z,0
2017-08-22T02:19:44.943Z,0
2017-08-22T02:20:17.240Z,0
2017-08-22T02:20:49.528Z,0
2017-08-22T02:21:21.849Z,0
2017-08-22T02:21:54.144Z,0
2017-08-22T02:22:26.435Z,0
2017-08-22T02:22:58.742Z,0
2017-08-22T02:23:31.060Z,0
2017-08-22T02:24:03.353Z,0
2017-08-22T02:24:35.647Z,0
2017-08-22T02:25:07.925Z,0
2017-08-22T02:25:40.210Z,0
2017-08-22T02:26:12.504Z,0
2017-08-22T02:26:44.803Z,0
2017-08-22T02:27:17.101Z,0
2017-08-22T02:27:49.402Z,0
2017-08-22T02:28:21.693Z,0
2017-08-22T02:28:53.992Z,0
2017-08-22T02:29:26.326Z,0
2017-08-22T02:29:58.639Z,0
2017-08-22T02:30:30.939Z,0
2017-08-22T02:31:03.239Z,0
2017-08-22T02:31:35.538Z,0
2017-08-22T02:32:07.849Z,0
2017-08-22T02:32:40.154Z,0
2017-08-22T02:33:12.440Z,0
2017-08-22T02:33:44.758Z,0
2017-08-22T02:34:17.059Z,0
2017-08-22T02:34:49.352Z,0
2017-08-22T02:35:21.626Z,0
2017-08-22T02:35:53.917Z,0
2017-08-22T02:36:26.207Z,0
2017-08-22T02:36:58.489Z,0
2017-08-22T02:37:30.793Z,0
2017-08-22T02:38:03.101Z,0
2017-08-22T02:38:35.428Z,0
2017-08-22T02:39:07.726Z,0
2017-08-22T02:39:40.017Z,0
2017-08-22T02:40:12.312Z,0
2017-08-22T02:40:44.610Z,0
2017-08-22T02:41:16.905Z,0
2017-08-22T02:41:49.192Z,0
2017-08-22T02:42:21.489Z,0
2017-08-22T02:42:53.780Z,0
2017-08-22T02:43:26.087Z,0
2017-08-22T02:43:58.393Z,0
2017-08-22T02:44:30.702Z,0
2017-08-22T02:45:03.004Z,0
2017-08-22T02:45:35.312Z,0
2017-08-22T02:46:07.609Z,0
2017-08-22T02:46:39.924Z,0
2017-08-22T02:47:12.237Z,0
2017-08-22T02:47:44.552Z,0
2017-08-22T02:48:16.861Z,0
2017-08-22T02:48:49.153Z,0
2017-08-22T02:49:21.453Z,0
2017-08-22T02:49:53.769Z,0
2017-08-22T02:50:26.067Z,0
2017-08-22T02:50:58.365Z,0
2017-08-22T02:51:30.667Z,0
2017-08-22T02:52:02.974Z,0
2017-08-22T02:52:35.284Z,0
2017-08-22T02:53:07.627Z,0
2017-08-22T02:53:39.900Z,0
2017-08-22T02:54:12.173Z,0
2017-08-22T02:54:44.436Z,0
2017-08-22T02:55:16.706Z,0
2017-08-22T02:55:48.974Z,0
2017-08-22T02:56:21.259Z,0
2017-08-22T02:56:53.508Z,0
2017-08-22T02:57:25.766Z,0
2017-08-22T02:57:58.028Z,0
2017-08-22T02:58:30.279Z,0
2017-08-22T02:59:02.546Z,0
2017-08-22T02:59:34.952Z,0
2017-08-22T03:00:07.223Z,0
2017-08-22T03:00:39.494Z,0
2017-08-22T03:01:11.768Z,0
2017-08-22T03:01:44.046Z,0
2017-08-22T03:02:16.331Z,0
2017-08-22T03:02:48.616Z,0
2017-08-22T03:03:20.908Z,0
2017-08-22T03:03:53.229Z,0
2017-08-22T03:04:25.526Z,0
2017-08-22T03:04:57.835Z,0
2017-08-22T03:05:30.149Z,0
2017-08-22T03:06:02.454Z,0
2017-08-22T03:06:34.753Z,0
2017-08-22T03:07:07.071Z,0
2017-08-22T03:07:39.378Z,0
2017-08-22T03:08:11.656Z,0
2017-08-22T03:08:43.956Z,0
2017-08-22T03:09:16.257Z,0
2017-08-22T03:09:48.548Z,0
2017-08-22T03:10:20.859Z,0
2017-08-22T03:10:53.163Z,0
2017-08-22T03:11:25.444Z,0
2017-08-22T03:11:57.745Z,0
2017-08-22T03:12:30.049Z,0
2017-08-22T03:13:02.314Z,0
2017-08-22T03:13:34.572Z,0
2017-08-22T03:14:06.830Z,0
2017-08-22T03:14:39.107Z,0
2017-08-22T03:15:11.366Z,0
2017-08-22T03:15:43.650Z,0
2017-08-22T03:16:15.991Z,0
2017-08-22T03:16:48.249Z,0
2017-08-22T03:17:20.535Z,0
2017-08-22T03:17:52.795Z,0
2017-08-22T03:18:25.071Z,0
2017-08-22T03:18:57.330Z,0
2017-08-22T03:19:29.576Z,0
2017-08-22T03:20:01.832Z,0
2017-08-22T03:20:34.087Z,0
2017-08-22T03:21:06.373Z,0
2017-08-22T03:21:38.621Z,0
2017-08-22T03:22:10.882Z,0
2017-08-22T03:22:43.157Z,0
2017-08-22T03:23:15.458Z,0
2017-08-22T03:23:47.769Z,0
2017-08-22T03:24:20.077Z,0
2017-08-22T03:24:52.384Z,0
2017-08-22T03:25:24.664Z,0
2017-08-22T03:25:56.951Z,0
2017-08-22T03:26:29.249Z,0
2017-08-22T03:27:01.537Z,0
2017-08-22T03:27:33.832Z,0
2017-08-22T03:28:06.123Z,0
2017-08-22T03:28:38.405Z,0
2017-08-22T03:29:10.698Z,0
2017-08-22T03:29:43.002Z,0
2017-08-22T03:30:15.319Z,0
2017-08-22T03:30:47.643Z,0
2017-08-22T03:31:19.970Z,0
2017-08-22T03:31:52.263Z,0
2017-08-22T03:32:24.553Z,0
2017-08-22T03:32:56.834Z,0
2017-08-22T03:33:29.097Z,0
2017-08-22T03:34:01.354Z,0
2017-08-22T03:34:33.633Z,0
2017-08-22T03:35:05.989Z,0
2017-08-22T03:35:38.239Z,0
2017-08-22T03:36:10.508Z,0
2017-08-22T03:36:42.758Z,0
2017-08-22T03:37:15.093Z,0
2017-08-22T03:37:47.361Z,0
2017-08-22T03:38:19.607Z,0
2017-08-22T03:38:51.860Z,0
2017-08-22T03:39:24.132Z,0
2017-08-22T03:39:56.388Z,0
2017-08-22T03:40:29.392Z,0
2017-08-22T03:41:01.641Z,0
2017-08-22T03:41:33.916Z,0
2017-08-22T03:42:06.185Z,0
2017-08-22T03:42:38.595Z,0
2017-08-22T03:43:10.868Z,0
2017-08-22T03:43:43.103Z,0
2017-08-22T03:44:15.444Z,0
2017-08-22T03:44:47.686Z,0
2017-08-22T03:45:19.961Z,0
2017-08-22T03:45:52.220Z,0
2017-08-22T03:46:24.509Z,0
2017-08-22T03:46:56.787Z,0
2017-08-22T03:47:29.073Z,0
2017-08-22T03:48:01.333Z,0
2017-08-22T03:48:33.616Z,0
2017-08-22T03:49:05.892Z,0
2017-08-22T03:49:38.151Z,0
2017-08-22T03:50:10.404Z,0
2017-08-22T03:50:42.644Z,0
2017-08-22T03:51:14.929Z,0
2017-08-22T03:51:47.214Z,0
2017-08-22T03:52:19.493Z,0
2017-08-22T03:52:51.857Z,0
2017-08-22T03:53:24.234Z,0
2017-08-22T03:53:56.500Z,0
2017-08-22T03:54:28.767Z,0
2017-08-22T03:55:01.091Z,0
2017-08-22T03:55:33.353Z,0
2017-08-22T03:56:05.634Z,0
2017-08-22T03:56:37.901Z,0
2017-08-22T03:57:10.148Z,0
2017-08-22T03:57:42.503Z,0
2017-08-22T03:58:14.756Z,0
2017-08-22T03:58:47.050Z,0
2017-08-22T03:59:19.332Z,0
2017-08-22T03:59:51.598Z,0
2017-08-22T04:00:23.868Z,0
2017-08-22T04:00:56.154Z,0
2017-08-22T04:01:28.422Z,0
2017-08-22T04:02:00.677Z,0
2017-08-22T04:02:32.960Z,0
2017-08-22T04:03:05.259Z,0
2017-08-22T04:03:37.555Z,0
2017-08-22T04:04:09.838Z,0
2017-08-22T04:04:42.142Z,0
2017-08-22T04:05:14.439Z,0
2017-08-22T04:05:46.751Z,0
2017-08-22T04:06:19.033Z,0
2017-08-22T04:06:51.330Z,0
2017-08-22T04:07:23.615Z,0
2017-08-22T04:07:55.924Z,0
2017-08-22T04:08:28.214Z,0
2017-08-22T04:09:00.504Z,0
2017-08-22T04:09:32.803Z,0
2017-08-22T04:10:05.112Z,0
2017-08-22T04:10:37.410Z,0
2017-08-22T04:11:09.713Z,0
2017-08-22T04:11:42.015Z,0
2017-08-22T04:12:14.320Z,0
2017-08-22T04:12:46.622Z,0
2017-08-22T04:13:18.927Z,0
2017-08-22T04:13:51.222Z,0
2017-08-22T04:14:23.529Z,0
2017-08-22T04:14:55.836Z,0
2017-08-22T04:15:28.150Z,0
2017-08-22T04:16:00.438Z,0
2017-08-22T04:16:32.745Z,0
2017-08-22T04:17:05.041Z,0
2017-08-22T04:17:37.335Z,0
2017-08-22T04:18:09.636Z,0
2017-08-22T04:18:41.923Z,0
2017-08-22T04:19:14.226Z,0
2017-08-22T04:19:46.522Z,0
2017-08-22T04:20:18.830Z,0
2017-08-22T04:20:51.137Z,0
2017-08-22T04:21:23.438Z,0
2017-08-22T04:21:55.722Z,0
2017-08-22T04:22:28.020Z,0
2017-08-22T04:23:00.298Z,0
2017-08-22T04:23:32.574Z,0
2017-08-22T04:24:04.842Z,0
2017-08-22T04:24:37.117Z,0
2017-08-22T04:25:09.366Z,0
2017-08-22T04:25:41.635Z,0
2017-08-22T04:26:13.890Z,0
2017-08-22T04:26:46.159Z,0
2017-08-22T04:27:18.411Z,0
2017-08-22T04:27:50.725Z,0
2017-08-22T04:28:22.985Z,0
2017-08-22T04:28:55.242Z,0
2017-08-22T04:29:27.512Z,0
2017-08-22T04:29:59.775Z,0
2017-08-22T04:30:32.026Z,0
2017-08-22T04:31:04.375Z,0
2017-08-22T04:31:36.649Z,0
2017-08-22T04:32:08.917Z,0
2017-08-22T04:32:41.212Z,0
2017-08-22T04:33:13.561Z,0
2017-08-22T04:33:45.852Z,0
2017-08-22T04:34:18.123Z,0
2017-08-22T04:34:50.419Z,0
2017-08-22T04:35:22.679Z,0
2017-08-22T04:35:55.065Z,0
2017-08-22T04:36:27.314Z,0
2017-08-22T04:36:59.577Z,0
2017-08-22T04:37:31.816Z,0
2017-08-22T04:38:04.105Z,0
2017-08-22T04:38:36.401Z,0
2017-08-22T04:39:08.707Z,0
2017-08-22T04:39:40.954Z,0
2017-08-22T04:40:13.203Z,0
2017-08-22T04:40:45.450Z,5
2017-08-22T04:41:17.724Z,5
2017-08-22T04:41:49.988Z,5
2017-08-22T04:42:22.254Z,5
2017-08-22T04:42:54.520Z,5
2017-08-22T04:43:26.801Z,5
2017-08-22T04:43:59.052Z,5
2017-08-22T04:44:31.315Z,5
2017-08-22T04:45:03.599Z,5
2017-08-22T04:45:35.870Z,5
2017-08-22T04:46:08.123Z,5
2017-08-22T04:46:40.383Z,5
2017-08-22T04:47:12.639Z,5
2017-08-22T04:47:44.919Z,5
2017-08-22T04:48:17.187Z,5
2017-08-22T04:48:49.435Z,5
2017-08-22T04:49:21.675Z,5
2017-08-22T04:49:53.947Z,5
2017-08-22T04:50:26.212Z,10
2017-08-22T04:50:58.463Z,10
2017-08-22T04:51:30.766Z,10
2017-08-22T04:52:03.033Z,10
2017-08-22T04:52:35.302Z,10
2017-08-22T04:53:07.586Z,10
2017-08-22T04:53:39.881Z,10
2017-08-22T04:54:12.196Z,10
2017-08-22T04:54:44.507Z,10
2017-08-22T04:55:16.808Z,10
2017-08-22T04:55:49.109Z,10
2017-08-22T04:56:21.399Z,10
2017-08-22T04:56:53.714Z,10
2017-08-22T04:57:26.011Z,10
2017-08-22T04:57:58.312Z,10
2017-08-22T04:58:30.619Z,10
2017-08-22T04:59:02.909Z,15
2017-08-22T04:59:35.218Z,15
2017-08-22T05:00:07.534Z,15
2017-08-22T05:00:39.848Z,15
2017-08-22T05:01:12.143Z,15
2017-08-22T05:01:44.446Z,15
2017-08-22T05:02:16.736Z,15
2017-08-22T05:02:49.040Z,15
2017-08-22T05:03:21.300Z,15
2017-08-22T05:03:53.571Z,15
2017-08-22T05:04:25.842Z,15
2017-08-22T05:04:58.095Z,15
2017-08-22T05:05:30.844Z,15
2017-08-22T05:06:03.125Z,15
2017-08-22T05:06:35.467Z,15
2017-08-22T05:07:07.744Z,15
2017-08-22T05:07:40.008Z,20
2017-08-22T05:08:12.261Z,20
2017-08-22T05:08:44.516Z,20
2017-08-22T05:09:16.810Z,20
2017-08-22T05:09:49.079Z,20
2017-08-22T05:10:22.018Z,20
2017-08-22T05:10:54.287Z,20
2017-08-22T05:11:26.544Z,20
2017-08-22T05:11:58.793Z,20
2017-08-22T05:12:31.117Z,20
2017-08-22T05:13:03.417Z,20
2017-08-22T05:13:35.707Z,20
2017-08-22T05:14:08.041Z,20
2017-08-22T05:14:40.364Z,25
2017-08-22T05:15:12.653Z,25
2017-08-22T05:15:44.956Z,25
2017-08-22T05:16:17.250Z,25
2017-08-22T05:16:49.547Z,25
2017-08-22T05:17:21.839Z,25
2017-08-22T05:17:54.135Z,25
2017-08-22T05:18:26.433Z,25
2017-08-22T05:18:58.751Z,25
2017-08-22T05:19:31.029Z,25
2017-08-22T05:20:03.341Z,25
2017-08-22T05:20:35.643Z,25
2017-08-22T05:21:07.944Z,25
2017-08-22T05:21:40.228Z,30
2017-08-22T05:22:12.529Z,30
2017-08-22T05:22:44.817Z,30
2017-08-22T05:23:17.150Z,30
2017-08-22T05:23:49.408Z,30
2017-08-22T05:24:21.690Z,30
2017-08-22T05:24:54.518Z,30
2017-08-22T05:25:26.824Z,30
2017-08-22T05:25:59.100Z,35
2017-08-22T05:26:31.368Z,35
2017-08-22T05:27:03.655Z,35
2017-08-22T05:27:36.077Z,35
2017-08-22T05:28:08.370Z,35
2017-08-22T05:28:40.644Z,35
2017-08-22T05:29:12.888Z,35
2017-08-22T05:29:45.192Z,35
2017-08-22T05:30:17.449Z,35
2017-08-22T05:30:49.728Z,35
2017-08-22T05:31:21.987Z,35
2017-08-22T05:31:54.375Z,35
2017-08-22T05:32:26.650Z,35
2017-08-22T05:32:58.930Z,35
2017-08-22T05:33:31.193Z,35
2017-08-22T05:34:03.469Z,35
2017-08-22T05:34:35.867Z,35
2017-08-22T05:35:08.118Z,35
2017-08-22T05:35:40.374Z,35
2017-08-22T05:36:12.620Z,40
2017-08-22T05:36:45.194Z,40
2017-08-22T05:37:17.459Z,40
2017-08-22T05:37:49.728Z,40
2017-08-22T05:38:21.990Z,40
2017-08-22T05:38:54.302Z,40
2017-08-22T05:39:26.587Z,40
2017-08-22T05:39:58.846Z,40
2017-08-22T05:40:31.112Z,40
2017-08-22T05:41:03.368Z,40
2017-08-22T05:41:35.629Z,40
2017-08-22T05:42:07.994Z,40
2017-08-22T05:42:40.264Z,40
2017-08-22T05:43:12.537Z,40
2017-08-22T05:43:44.839Z,40
2017-08-22T05:44:17.116Z,40
2017-08-22T05:44:51.060Z,40
2017-08-22T05:45:24.625Z,40
2017-08-22T05:45:57.018Z,40
2017-08-22T05:46:29.301Z,40
2017-08-22T05:47:01.570Z,45
2017-08-22T05:47:33.857Z,45
2017-08-22T05:48:06.182Z,45
2017-08-22T05:48:38.500Z,45
2017-08-22T05:49:10.802Z,45
2017-08-22T05:49:43.094Z,45
2017-08-22T05:50:15.376Z,50
2017-08-22T05:50:47.672Z,50
2017-08-22T05:51:19.989Z,50
2017-08-22T05:51:52.283Z,50
2017-08-22T05:52:24.565Z,50
2017-08-22T05:52:56.883Z,55
2017-08-22T05:53:29.207Z,55
2017-08-22T05:54:01.502Z,55
2017-08-22T05:54:33.801Z,55
2017-08-22T05:55:06.093Z,60
2017-08-22T05:55:38.393Z,60
2017-08-22T05:56:10.705Z,55
2017-08-22T05:56:43.028Z,55
2017-08-22T05:57:15.363Z,60
2017-08-22T05:57:47.669Z,65
2017-08-22T05:58:19.986Z,65
2017-08-22T05:58:52.270Z,65
2017-08-22T05:59:24.556Z,65
2017-08-22T05:59:56.868Z,65
2017-08-22T06:00:29.157Z,65
2017-08-22T06:01:01.455Z,65
2017-08-22T06:01:33.742Z,65
2017-08-22T06:02:06.066Z,65
2017-08-22T06:02:38.370Z,65
2017-08-22T06:03:10.624Z,65
2017-08-22T06:03:42.875Z,65
2017-08-22T06:04:15.180Z,65
2017-08-22T06:04:47.528Z,65
2017-08-22T06:05:19.780Z,65
2017-08-22T06:05:52.036Z,60
2017-08-22T06:06:24.307Z,60
2017-08-22T06:06:56.596Z,60
2017-08-22T06:07:29.018Z,60
2017-08-22T06:08:01.294Z,60
2017-08-22T06:08:33.516Z,65
2017-08-22T06:09:05.842Z,65
2017-08-22T06:09:38.231Z,70
2017-08-22T06:10:10.474Z,70
2017-08-22T06:10:42.773Z,75
2017-08-22T06:11:15.197Z,75
2017-08-22T06:11:47.688Z,80
2017-08-22T06:12:20.117Z,75
2017-08-22T06:12:52.387Z,75
2017-08-22T06:13:24.661Z,75
2017-08-22T06:13:56.684Z,80
2017-08-22T06:14:29.001Z,75
2017-08-22T06:15:01.305Z,75
2017-08-22T06:15:33.596Z,75
2017-08-22T06:16:05.918Z,65
2017-08-22T06:16:38.310Z,75
2017-08-22T06:17:11.551Z,70
2017-08-22T06:17:43.856Z,75
2017-08-22T06:18:17.097Z,75
2017-08-22T06:20:09.070Z,80
2017-08-22T06:20:41.377Z,80
2017-08-22T06:21:14.550Z,85
2017-08-22T06:21:46.886Z,80
2017-08-22T06:22:19.155Z,80
2017-08-22T06:22:51.467Z,80
2017-08-22T06:23:23.772Z,85
2017-08-22T06:23:56.062Z,85
2017-08-22T06:24:28.355Z,85
2017-08-22T06:25:00.651Z,85
2017-08-22T06:25:32.929Z,85
2017-08-22T06:26:05.216Z,85
2017-08-22T06:26:37.493Z,85
2017-08-22T06:27:10.317Z,80
2017-08-22T06:27:43.619Z,75
2017-08-22T06:28:16.697Z,70
2017-08-22T06:28:49.709Z,75
2017-08-22T06:29:23.697Z,75
2017-08-22T06:29:58.072Z,75
2017-08-22T06:30:30.696Z,80
2017-08-22T06:31:05.269Z,85
2017-08-22T06:31:37.942Z,90
2017-08-22T06:32:10.625Z,90
2017-08-22T06:32:44.301Z,90
2017-08-22T06:33:16.610Z,90
2017-08-22T06:33:48.906Z,90
2017-08-22T06:34:21.196Z,90
2017-08-22T06:34:53.490Z,90
2017-08-22T06:35:25.793Z,90
2017-08-22T06:35:58.079Z,90
2017-08-22T06:36:30.396Z,90
2017-08-22T06:37:03.721Z,90
2017-08-22T06:37:36.885Z,90
2017-08-22T06:38:09.292Z,95
2017-08-22T06:38:41.603Z,95
2017-08-22T06:39:13.905Z,95
2017-08-22T06:39:45.954Z,90
2017-08-22T06:40:18.258Z,95
2017-08-22T06:40:50.585Z,95
2017-08-22T06:41:22.883Z,95
2017-08-22T06:41:55.170Z,95
2017-08-22T06:42:27.468Z,95
2017-08-22T06:42:59.764Z,95
2017-08-22T06:43:32.061Z,95
2017-08-22T06:44:04.357Z,95
2017-08-22T06:44:36.664Z,95
2017-08-22T06:45:10.403Z,95
2017-08-22T06:45:42.673Z,95
2017-08-22T06:46:14.951Z,95
2017-08-22T06:48:07.103Z,95
2017-08-22T06:48:39.396Z,95
2017-08-22T06:49:11.736Z,95
2017-08-22T06:49:44.090Z,100
2017-08-22T06:50:16.358Z,100
2017-08-22T06:50:48.683Z,100
2017-08-22T06:51:22.068Z,100
2017-08-22T06:51:54.386Z,100
2017-08-22T06:52:26.704Z,95
2017-08-22T06:52:59.228Z,95
2017-08-22T06:53:31.517Z,100
2017-08-22T06:54:03.836Z,100
2017-08-22T06:54:36.147Z,100
2017-08-22T06:55:08.445Z,100
2017-08-22T06:55:40.751Z,105
2017-08-22T06:56:13.541Z,105
2017-08-22T06:56:45.817Z,100
2017-08-22T06:57:18.135Z,100
2017-08-22T06:57:50.426Z,105
2017-08-22T06:58:22.721Z,100
2017-08-22T06:58:55.017Z,105
2017-08-22T06:59:27.319Z,105
2017-08-22T06:59:59.610Z,105
2017-08-22T07:00:31.935Z,105
2017-08-22T07:02:23.524Z,105
2017-08-22T07:02:55.837Z,105
2017-08-22T07:03:28.202Z,105
2017-08-22T07:04:00.589Z,105
2017-08-22T07:04:32.921Z,105
2017-08-22T07:05:05.348Z,105
2017-08-22T07:05:37.654Z,105
2017-08-22T07:06:09.902Z,105
2017-08-22T07:06:42.255Z,105
2017-08-22T07:07:14.702Z,105
2017-08-22T07:07:47.019Z,105
2017-08-22T07:08:19.308Z,105
2017-08-22T07:08:51.675Z,105
2017-08-22T07:09:23.962Z,105
2017-08-22T07:09:56.231Z,105
2017-08-22T07:10:28.515Z,110
2017-08-22T07:11:00.795Z,110
2017-08-22T07:11:33.183Z,110
2017-08-22T07:12:05.475Z,105
2017-08-22T07:12:37.967Z,105
2017-08-22T07:13:09.971Z,110
2017-08-22T07:13:42.256Z,110
2017-08-22T07:14:14.548Z,110
2017-08-22T07:14:46.879Z,110
2017-08-22T07:15:19.194Z,110
2017-08-22T07:15:51.497Z,110
2017-08-22T07:16:23.844Z,110
2017-08-22T07:16:56.136Z,110
2017-08-22T07:17:28.448Z,110
2017-08-22T07:18:00.765Z,110
2017-08-22T07:18:33.083Z,110
2017-08-22T07:19:07.382Z,115
2017-08-22T07:19:40.661Z,115
2017-08-22T07:20:13.809Z,115
2017-08-22T07:20:47.330Z,115
2017-08-22T07:21:20.206Z,115
2017-08-22T07:21:52.486Z,115
2017-08-22T07:22:25.441Z,115
2017-08-22T07:22:59.153Z,115
2017-08-22T07:23:32.000Z,115
2017-08-22T07:24:04.022Z,115
2017-08-22T07:24:36.320Z,115
2017-08-22T07:25:08.623Z,115
2017-08-22T07:25:40.925Z,115
2017-08-22T07:26:13.200Z,115
2017-08-22T07:26:45.477Z,115
2017-08-22T07:27:17.773Z,115
2017-08-22T07:27:50.146Z,120
2017-08-22T07:28:22.435Z,115
2017-08-22T07:28:54.749Z,120
2017-08-22T07:29:27.047Z,120
2017-08-22T07:29:59.343Z,120
2017-08-22T07:30:31.637Z,120
2017-08-22T07:31:03.939Z,120
2017-08-22T07:31:36.244Z,120
2017-08-22T07:32:08.520Z,120
2017-08-22T07:32:40.830Z,120
2017-08-22T07:33:13.159Z,120
2017-08-22T07:33:45.445Z,120
2017-08-22T07:34:17.723Z,125
2017-08-22T07:34:49.973Z,125
2017-08-22T07:35:22.224Z,125
2017-08-22T07:35:54.500Z,125
2017-08-22T07:36:26.745Z,125
2017-08-22T07:36:59.002Z,125
2017-08-22T07:37:31.304Z,130
2017-08-22T07:38:03.586Z,130
2017-08-22T07:38:35.900Z,130
2017-08-22T07:39:08.270Z,130
2017-08-22T07:39:40.526Z,130
2017-08-22T07:40:12.763Z,130
2017-08-22T07:40:45.044Z,130
2017-08-22T07:41:17.289Z,130
2017-08-22T07:41:49.560Z,125
2017-08-22T07:42:21.813Z,125
2017-08-22T07:42:54.129Z,130
2017-08-22T07:43:26.470Z,130
2017-08-22T07:43:58.784Z,130
2017-08-22T07:44:31.087Z,130
2017-08-22T07:45:03.394Z,130
2017-08-22T07:45:35.690Z,130
2017-08-22T07:46:07.994Z,130
2017-08-22T07:46:40.285Z,130
2017-08-22T07:47:12.584Z,130
2017-08-22T07:47:44.885Z,130
2017-08-22T07:48:17.186Z,130
2017-08-22T07:48:49.550Z,130
2017-08-22T07:49:21.871Z,130
2017-08-22T07:49:54.187Z,130
2017-08-22T07:50:26.494Z,135
2017-08-22T07:50:58.791Z,135
2017-08-22T07:51:31.142Z,135
2017-08-22T07:52:03.464Z,130
2017-08-22T07:52:35.769Z,135
2017-08-22T07:53:08.052Z,135
2017-08-22T07:53:40.339Z,135
2017-08-22T07:54:12.638Z,135
2017-08-22T07:54:46.421Z,135
2017-08-22T07:55:18.850Z,135